27 maggio 2022

Tempo Codice Tempo metereologico Temp. Vista Base nuvolosa Vento METAR/SPECI
8:30 pm
V
64 °F 6¼ mi+ 3.800 ft 040° 040° 5 kt METAR LFHP 271830Z AUTO 04005KT 9999 BKN038 18/10 Q1023
8:00 pm
V
68 °F 6¼ mi+ 3.900 ft 060° 060° 7 kt METAR LFHP 271800Z AUTO 06007KT 9999 BKN039 20/11 Q1023
7:30 pm
V
68 °F 6¼ mi+ 4.100 ft 070° 070° 6 kt METAR LFHP 271730Z AUTO 07006KT 040V100 9999 BKN041 BKN048 20/11 Q1022
7:00 pm
V
70 °F 6¼ mi+ 4.100 ft 070° 070° 9 kt METAR LFHP 271700Z AUTO 07009KT 040V100 9999 OVC041 21/11 Q1022
6:30 pm
V
70 °F 6¼ mi+ 4.200 ft 060° 060° 7 kt METAR LFHP 271630Z AUTO 06007KT 040V100 9999 BKN042 OVC048 21/10 Q1022
6:00 pm
V
72 °F 6¼ mi+ 4.600 ft 070° 070° 6 kt METAR LFHP 271600Z AUTO 07006KT 030V090 9999 BKN046 22/10 Q1023
5:30 pm
V
73 °F 6¼ mi+ - 090° 090° 7 kt METAR LFHP 271530Z AUTO 09007KT 050V130 9999 FEW048 23/10 Q1023
5:00 pm
V
73 °F 6¼ mi+ - 050° 050° 9 kt METAR LFHP 271500Z AUTO 05009KT 010V110 CAVOK 23/10 Q1023
4:30 pm
V
72 °F 6¼ mi+ - 060° 060° 7 kt METAR LFHP 271430Z AUTO 06007KT 350V110 CAVOK 22/10 Q1023
Dati più vecchi

Scarica la nostra applicazione

Facile accesso a tutte le previsioni dell'aviazione sul tuo cellulare e tablet.
Con molte caratteristiche non disponibili sul sito web, come il supporto offline e una lista personale di aeroporti.

Noi e le terze parti seguiamo il tuo comportamento in internet sul nostro sito web con i cookie. Se continui, riteniamo che tu sia d'accordo con la nostra politica sui cookie. Per saperne di più